sim
Sign-in with your pilot id or email,
or register
Callsign
Passwort

Schedule Details

Flight Number: DLH2142 (3)
Departure: Munich Airport (EDDM) at 13:55
Arrival: Munster Osnabruck International -?Airport (EDDG) at 15:10
Route: Lufthansa Passenger Schedule. Enter filed route here before submitting Pirep.

Weather Information
Getting current METAR information for EDDM 241120Z 22005KT 130V250 9999 FEW033 20/13 Q1010 NOSIG
Getting current METAR information for EDDG 241120Z 20010KT 170V240 9999 FEW038 17/08 Q1003 NOSIG

Schedule Frequency

Route Map